createdAt,value
2018-06-25T00:00:39.292Z,1023.09
2018-06-25T00:01:39.215Z,1023.12
2018-06-25T00:02:39.217Z,1023.14
2018-06-25T00:03:39.243Z,1023.12
2018-06-25T00:04:39.323Z,1023.15
2018-06-25T00:05:39.223Z,1023.16
2018-06-25T00:06:39.216Z,1023.2
2018-06-25T00:07:39.231Z,1023.13
2018-06-25T00:08:39.252Z,1023.17
2018-06-25T00:09:39.208Z,1023.12
2018-06-25T00:10:39.209Z,1023.11
2018-06-25T00:11:39.222Z,1023.12
2018-06-25T00:12:39.211Z,1023.11
2018-06-25T00:13:39.320Z,1023.12
2018-06-25T00:14:39.207Z,1023.1
2018-06-25T00:15:39.225Z,1023.14
2018-06-25T00:16:39.211Z,1023.15
2018-06-25T00:17:39.212Z,1023.17
2018-06-25T00:18:39.224Z,1023.19
2018-06-25T00:19:39.244Z,1023.2
2018-06-25T00:20:39.227Z,1023.18
2018-06-25T00:21:39.216Z,1023.14
2018-06-25T00:22:39.231Z,1023.13
2018-06-25T00:23:39.234Z,1023.14
2018-06-25T00:24:39.210Z,1023.13
2018-06-25T00:25:39.285Z,1023.11
2018-06-25T00:26:39.214Z,1023.16
2018-06-25T00:27:39.220Z,1023.16
2018-06-25T00:28:39.215Z,1023.16
2018-06-25T00:29:39.243Z,1023.15
2018-06-25T00:30:39.257Z,1023.18
2018-06-25T00:31:39.216Z,1023.17
2018-06-25T00:32:39.220Z,1023.14
2018-06-25T00:33:39.282Z,1023.13
2018-06-25T00:34:39.300Z,1023.11
2018-06-25T00:35:39.298Z,1023.09
2018-06-25T00:36:39.241Z,1023.12
2018-06-25T00:37:39.232Z,1023.16
2018-06-25T00:38:39.251Z,1023.16
2018-06-25T00:39:39.423Z,1023.18
2018-06-25T00:40:39.324Z,1023.17
2018-06-25T00:41:39.253Z,1023.23
2018-06-25T00:42:39.255Z,1023.15
2018-06-25T00:43:39.239Z,1023.14
2018-06-25T00:44:39.276Z,1023.17
2018-06-25T00:45:39.230Z,1023.1
2018-06-25T00:46:39.285Z,1023.12
2018-06-25T00:47:39.317Z,1023.07
2018-06-25T00:48:39.385Z,1023.13
2018-06-25T00:49:39.233Z,1023.06
2018-06-25T00:50:39.429Z,1023.03
2018-06-25T00:51:39.266Z,1023.05
2018-06-25T00:52:39.238Z,1023.04
2018-06-25T00:53:39.283Z,1023.04
2018-06-25T00:54:39.248Z,1023.06
2018-06-25T00:55:39.220Z,1023.04
2018-06-25T00:56:39.253Z,1023.05
2018-06-25T00:57:39.292Z,1023.05
2018-06-25T00:58:39.504Z,1023.13
2018-06-25T00:59:39.354Z,1023.09
2018-06-25T01:00:39.411Z,1023.12
2018-06-25T01:01:40.365Z,1023.12
2018-06-25T01:02:39.260Z,1023.09
2018-06-25T01:03:39.265Z,1023.1
2018-06-25T01:04:39.617Z,1023.11
2018-06-25T01:05:39.250Z,1023.09
2018-06-25T01:06:39.342Z,1023.09
2018-06-25T01:07:39.272Z,1023.12
2018-06-25T01:08:39.254Z,1023.13
2018-06-25T01:09:39.262Z,1023.11
2018-06-25T01:10:39.290Z,1023.11
2018-06-25T01:11:39.267Z,1023.13
2018-06-25T01:12:39.357Z,1023.14
2018-06-25T01:13:39.249Z,1023.1
2018-06-25T01:14:39.242Z,1023.08
2018-06-25T01:15:39.322Z,1023.08
2018-06-25T01:16:39.263Z,1023.09
2018-06-25T01:17:39.262Z,1023.05
2018-06-25T01:18:39.256Z,1023.09
2018-06-25T01:19:39.343Z,1023.1
2018-06-25T01:20:39.402Z,1023.09
2018-06-25T01:21:39.378Z,1023.12
2018-06-25T01:22:39.448Z,1023.15
2018-06-25T01:23:39.343Z,1023.18
2018-06-25T01:24:39.422Z,1023.14
2018-06-25T01:25:39.275Z,1023.13
2018-06-25T01:26:39.261Z,1023.15
2018-06-25T01:27:39.269Z,1023.17
2018-06-25T01:28:39.273Z,1023.16
2018-06-25T01:29:39.282Z,1023.16
2018-06-25T01:30:39.336Z,1023.16
2018-06-25T01:31:39.315Z,1023.16
2018-06-25T01:32:39.261Z,1023.14
2018-06-25T01:33:39.278Z,1023.11
2018-06-25T01:34:39.290Z,1023.12
2018-06-25T01:35:39.268Z,1023.09
2018-06-25T01:36:39.257Z,1023.08
2018-06-25T01:37:39.257Z,1023.12
2018-06-25T01:38:39.263Z,1023.12
2018-06-25T01:39:39.291Z,1023.14
2018-06-25T01:40:39.266Z,1023.11
2018-06-25T01:41:39.281Z,1023.1
2018-06-25T01:42:39.285Z,1023.08
2018-06-25T01:43:39.437Z,1023.03
2018-06-25T01:44:39.300Z,1023.04
2018-06-25T01:45:39.269Z,1023.01
2018-06-25T01:46:39.316Z,1023.03
2018-06-25T01:47:39.332Z,1023.01
2018-06-25T01:48:39.279Z,1023.05
2018-06-25T01:49:39.289Z,1023.01
2018-06-25T01:50:39.311Z,1023
2018-06-25T01:51:39.293Z,1023.01
2018-06-25T01:52:39.310Z,1022.99
2018-06-25T01:53:39.336Z,1022.98
2018-06-25T01:54:39.295Z,1022.94
2018-06-25T01:55:39.294Z,1022.94
2018-06-25T01:56:39.279Z,1022.94
2018-06-25T01:57:39.446Z,1022.96
2018-06-25T01:58:39.415Z,1022.92
2018-06-25T01:59:39.294Z,1022.95
2018-06-25T02:00:39.349Z,1022.97
2018-06-25T02:01:39.308Z,1022.97
2018-06-25T02:02:39.304Z,1023
2018-06-25T02:03:39.319Z,1023
2018-06-25T02:04:39.285Z,1023.03
2018-06-25T02:05:39.301Z,1023.05
2018-06-25T02:06:39.794Z,1023.06
2018-06-25T02:07:39.282Z,1023.03
2018-06-25T02:08:39.353Z,1022.99
2018-06-25T02:09:39.278Z,1023.02
2018-06-25T02:10:39.333Z,1022.99
2018-06-25T02:11:39.291Z,1022.97
2018-06-25T02:12:39.383Z,1022.97
2018-06-25T02:13:39.291Z,1022.96
2018-06-25T02:14:39.394Z,1022.97
2018-06-25T02:15:39.479Z,1022.94
2018-06-25T02:16:39.334Z,1022.97
2018-06-25T02:17:39.305Z,1022.98
2018-06-25T02:18:39.302Z,1023
2018-06-25T02:19:39.342Z,1023.06
2018-06-25T02:20:39.299Z,1023.05
2018-06-25T02:21:39.964Z,1023.04
2018-06-25T02:22:39.449Z,1023.05
2018-06-25T02:23:39.357Z,1023.09
2018-06-25T02:24:39.319Z,1023.07
2018-06-25T02:25:39.331Z,1023.09
2018-06-25T02:26:39.326Z,1023.1
2018-06-25T02:27:39.298Z,1023.07
2018-06-25T02:28:39.350Z,1023.07
2018-06-25T02:29:39.308Z,1023.08
2018-06-25T02:30:39.304Z,1023.05
2018-06-25T02:31:39.312Z,1023.06
2018-06-25T02:32:39.330Z,1023.04
2018-06-25T02:33:39.343Z,1023.06
2018-06-25T02:34:39.469Z,1023.05
2018-06-25T02:35:39.336Z,1023.05
2018-06-25T02:36:39.300Z,1023.04
2018-06-25T02:37:39.306Z,1023
2018-06-25T02:38:39.533Z,1023.01
2018-06-25T02:39:39.308Z,1023.04
2018-06-25T02:40:39.313Z,1023.03
2018-06-25T02:41:39.325Z,1023.02
2018-06-25T02:42:39.333Z,1023
2018-06-25T02:43:39.340Z,1023.01
2018-06-25T02:44:39.320Z,1023.07
2018-06-25T02:45:39.307Z,1023.07
2018-06-25T02:46:39.318Z,1023.09
2018-06-25T02:47:39.326Z,1023.09
2018-06-25T02:48:39.331Z,1023.1
2018-06-25T02:49:39.337Z,1023.11
2018-06-25T02:50:39.328Z,1023.12
2018-06-25T02:51:39.329Z,1023.12
2018-06-25T02:52:39.377Z,1023.11
2018-06-25T02:53:39.366Z,1023.12
2018-06-25T02:54:39.338Z,1023.1
2018-06-25T02:55:39.318Z,1023.12
2018-06-25T02:56:39.330Z,1023.09
2018-06-25T02:57:39.436Z,1023.08
2018-06-25T02:58:39.323Z,1023.08
2018-06-25T02:59:39.408Z,1023.06
2018-06-25T03:00:39.338Z,1023.05
2018-06-25T03:01:39.393Z,1023.08
2018-06-25T03:02:39.331Z,1023.1
2018-06-25T03:03:39.325Z,1023.1
2018-06-25T03:04:39.402Z,1023.07
2018-06-25T03:05:39.373Z,1023.09
2018-06-25T03:06:39.365Z,1023.08
2018-06-25T03:07:39.334Z,1023.1
2018-06-25T03:08:39.359Z,1023.07
2018-06-25T03:09:39.345Z,1023.06
2018-06-25T03:10:39.335Z,1023.04
2018-06-25T03:11:39.347Z,1023.06
2018-06-25T03:12:39.316Z,1023.06
2018-06-25T03:13:39.351Z,1023.06
2018-06-25T03:14:39.330Z,1023.05
2018-06-25T03:15:39.464Z,1023.06
2018-06-25T03:16:39.330Z,1023.04
2018-06-25T03:17:39.355Z,1023.09
2018-06-25T03:18:39.327Z,1023.1
2018-06-25T03:19:39.483Z,1023.12
2018-06-25T03:20:39.341Z,1023.1
2018-06-25T03:21:39.348Z,1023.17
2018-06-25T03:22:39.354Z,1023.17
2018-06-25T03:23:39.358Z,1023.18
2018-06-25T03:24:39.375Z,1023.21
2018-06-25T03:25:39.335Z,1023.19
2018-06-25T03:26:39.336Z,1023.21
2018-06-25T03:27:39.320Z,1023.23
2018-06-25T03:28:39.424Z,1023.25
2018-06-25T03:29:39.353Z,1023.25
2018-06-25T03:30:39.371Z,1023.29
2018-06-25T03:31:39.371Z,1023.34
2018-06-25T03:32:39.367Z,1023.3
2018-06-25T03:33:39.357Z,1023.32
2018-06-25T03:34:39.368Z,1023.3
2018-06-25T03:35:39.342Z,1023.31
2018-06-25T03:36:39.661Z,1023.32
2018-06-25T03:37:39.347Z,1023.33
2018-06-25T03:38:39.368Z,1023.33
2018-06-25T03:39:39.368Z,1023.35
2018-06-25T03:40:39.421Z,1023.35
2018-06-25T03:41:39.342Z,1023.4
2018-06-25T03:42:39.535Z,1023.38
2018-06-25T03:43:39.385Z,1023.41
2018-06-25T03:44:39.354Z,1023.4
2018-06-25T03:45:39.365Z,1023.44
2018-06-25T03:46:39.369Z,1023.42
2018-06-25T03:47:39.356Z,1023.45
2018-06-25T03:48:39.349Z,1023.4
2018-06-25T03:49:39.382Z,1023.4
2018-06-25T03:50:39.410Z,1023.38
2018-06-25T03:51:39.408Z,1023.41
2018-06-25T03:52:39.361Z,1023.39
2018-06-25T03:53:39.369Z,1023.37
2018-06-25T03:54:39.365Z,1023.38
2018-06-25T03:55:39.371Z,1023.42
2018-06-25T03:56:39.380Z,1023.39
2018-06-25T03:57:39.380Z,1023.42
2018-06-25T03:58:39.352Z,1023.42
2018-06-25T03:59:39.360Z,1023.38
2018-06-25T04:00:39.355Z,1023.43
2018-06-25T04:01:39.394Z,1023.43
2018-06-25T04:02:39.476Z,1023.45
2018-06-25T04:03:39.376Z,1023.45
2018-06-25T04:04:39.534Z,1023.48
2018-06-25T04:05:39.352Z,1023.49
2018-06-25T04:06:39.356Z,1023.54
2018-06-25T04:07:39.369Z,1023.5
2018-06-25T04:08:39.382Z,1023.53
2018-06-25T04:09:39.428Z,1023.53
2018-06-25T04:10:39.426Z,1023.56
2018-06-25T04:11:39.432Z,1023.59
2018-06-25T04:12:39.455Z,1023.57
2018-06-25T04:13:39.367Z,1023.56
2018-06-25T04:14:39.421Z,1023.62
2018-06-25T04:15:39.362Z,1023.65
2018-06-25T04:16:39.351Z,1023.63
2018-06-25T04:17:39.417Z,1023.62
2018-06-25T04:18:39.430Z,1023.65
2018-06-25T04:19:39.400Z,1023.64
2018-06-25T04:20:39.547Z,1023.65
2018-06-25T04:21:39.409Z,1023.63
2018-06-25T04:22:39.426Z,1023.65
2018-06-25T04:23:39.516Z,1023.65
2018-06-25T04:24:39.666Z,1023.67
2018-06-25T04:25:39.392Z,1023.69
2018-06-25T04:26:39.371Z,1023.71
2018-06-25T04:27:39.380Z,1023.71
2018-06-25T04:28:39.466Z,1023.7
2018-06-25T04:29:39.555Z,1023.7
2018-06-25T04:30:39.684Z,1023.73
2018-06-25T04:31:39.377Z,1023.74
2018-06-25T04:32:39.427Z,1023.77
2018-06-25T04:33:39.387Z,1023.72
2018-06-25T04:34:39.398Z,1023.77
2018-06-25T04:35:39.538Z,1023.78
2018-06-25T04:36:39.516Z,1023.74
2018-06-25T04:37:39.405Z,1023.77
2018-06-25T04:38:39.409Z,1023.81
2018-06-25T04:39:39.587Z,1023.75
2018-06-25T04:40:39.394Z,1023.79
2018-06-25T04:41:39.383Z,1023.82
2018-06-25T04:42:39.392Z,1023.82
2018-06-25T04:43:39.400Z,1023.84
2018-06-25T04:44:39.422Z,1023.86
2018-06-25T04:45:39.476Z,1023.83
2018-06-25T04:46:39.451Z,1023.83
2018-06-25T04:47:39.381Z,1023.8
2018-06-25T04:48:39.530Z,1023.84
2018-06-25T04:49:39.543Z,1023.81
2018-06-25T04:50:39.366Z,1023.83
2018-06-25T04:51:39.435Z,1023.81
2018-06-25T04:52:39.393Z,1023.84
2018-06-25T04:53:39.374Z,1023.84
2018-06-25T04:54:39.392Z,1023.85
2018-06-25T04:55:39.383Z,1023.83
2018-06-25T04:56:39.390Z,1023.82
2018-06-25T04:57:39.450Z,1023.84
2018-06-25T04:58:39.450Z,1023.86
2018-06-25T04:59:39.409Z,1023.87
2018-06-25T05:00:39.391Z,1023.9
2018-06-25T05:01:39.437Z,1023.91
2018-06-25T05:02:39.388Z,1023.92
2018-06-25T05:03:39.399Z,1023.91
2018-06-25T05:04:39.413Z,1023.93
2018-06-25T05:05:39.393Z,1023.9
2018-06-25T05:06:39.384Z,1023.94
2018-06-25T05:07:39.408Z,1023.98
2018-06-25T05:08:39.402Z,1023.98
2018-06-25T05:09:39.411Z,1024.01
2018-06-25T05:10:39.433Z,1023.99
2018-06-25T05:11:39.447Z,1023.96
2018-06-25T05:12:39.557Z,1024
2018-06-25T05:13:39.440Z,1023.95
2018-06-25T05:14:39.459Z,1023.98
2018-06-25T05:15:39.425Z,1024.02
2018-06-25T05:16:39.442Z,1024.04
2018-06-25T05:17:39.386Z,1024.02
2018-06-25T05:18:39.399Z,1024.08
2018-06-25T05:19:39.422Z,1024.05
2018-06-25T05:20:39.446Z,1024.05
2018-06-25T05:21:39.526Z,1024.09
2018-06-25T05:22:39.433Z,1024.05
2018-06-25T05:23:39.402Z,1024.11
2018-06-25T05:24:39.403Z,1024.08
2018-06-25T05:25:39.444Z,1024.14
2018-06-25T05:26:39.527Z,1024.13
2018-06-25T05:27:39.427Z,1024.12
2018-06-25T05:28:39.459Z,1024.14
2018-06-25T05:29:39.430Z,1024.15
2018-06-25T05:30:39.615Z,1024.17
2018-06-25T05:31:39.463Z,1024.19
2018-06-25T05:32:39.587Z,1024.19
2018-06-25T05:33:39.441Z,1024.22
2018-06-25T05:34:39.576Z,1024.23
2018-06-25T05:35:39.512Z,1024.27
2018-06-25T05:36:39.588Z,1024.26
2018-06-25T05:37:39.412Z,1024.27
2018-06-25T05:38:39.416Z,1024.25
2018-06-25T05:39:39.579Z,1024.3
2018-06-25T05:40:39.433Z,1024.26
2018-06-25T05:41:39.417Z,1024.29
2018-06-25T05:42:39.537Z,1024.25
2018-06-25T05:43:39.418Z,1024.29
2018-06-25T05:44:39.416Z,1024.28
2018-06-25T05:45:39.432Z,1024.26
2018-06-25T05:46:39.433Z,1024.23
2018-06-25T05:47:39.442Z,1024.33
2018-06-25T05:48:39.443Z,1024.27
2018-06-25T05:49:39.465Z,1024.28
2018-06-25T05:50:39.462Z,1024.26
2018-06-25T05:51:39.430Z,1024.25
2018-06-25T05:52:39.419Z,1024.3
2018-06-25T05:53:39.488Z,1024.3
2018-06-25T05:54:39.435Z,1024.27
2018-06-25T05:55:39.483Z,1024.31
2018-06-25T05:56:39.456Z,1024.32
2018-06-25T05:57:39.449Z,1024.3
2018-06-25T05:58:39.609Z,1024.34
2018-06-25T05:59:39.540Z,1024.36
2018-06-25T06:00:39.429Z,1024.37
2018-06-25T06:01:39.443Z,1024.36
2018-06-25T06:02:39.743Z,1024.36
2018-06-25T06:03:39.443Z,1024.39
2018-06-25T06:04:39.450Z,1024.4
2018-06-25T06:05:39.463Z,1024.39
2018-06-25T06:06:39.455Z,1024.4
2018-06-25T06:07:39.454Z,1024.44
2018-06-25T06:08:39.429Z,1024.45
2018-06-25T06:09:39.435Z,1024.46
2018-06-25T06:10:39.431Z,1024.46
2018-06-25T06:11:39.592Z,1024.44
2018-06-25T06:12:39.510Z,1024.46
2018-06-25T06:13:40.632Z,1024.48
2018-06-25T06:14:40.644Z,1024.49
2018-06-25T06:15:39.469Z,1024.45
2018-06-25T06:16:39.444Z,1024.54
2018-06-25T06:17:39.548Z,1024.47
2018-06-25T06:18:39.541Z,1024.52
2018-06-25T06:19:39.557Z,1024.57
2018-06-25T06:20:39.469Z,1024.54
2018-06-25T06:21:39.766Z,1024.58
2018-06-25T06:22:39.496Z,1024.57
2018-06-25T06:23:39.454Z,1024.59
2018-06-25T06:24:39.576Z,1024.62
2018-06-25T06:25:39.444Z,1024.66
2018-06-25T06:26:39.591Z,1024.61
2018-06-25T06:27:39.617Z,1024.65
2018-06-25T06:28:39.466Z,1024.66
2018-06-25T06:29:39.619Z,1024.67
2018-06-25T06:30:39.636Z,1024.68
2018-06-25T06:31:40.056Z,1024.67
2018-06-25T06:32:40.565Z,1024.7
2018-06-25T06:33:39.642Z,1024.65
2018-06-25T06:34:39.542Z,1024.71
2018-06-25T06:35:39.555Z,1024.67
2018-06-25T06:36:39.469Z,1024.66
2018-06-25T06:37:39.675Z,1024.68
2018-06-25T06:38:39.579Z,1024.71
2018-06-25T06:39:39.686Z,1024.71
2018-06-25T06:40:39.609Z,1024.7
2018-06-25T06:41:39.698Z,1024.67
2018-06-25T06:42:39.549Z,1024.72
2018-06-25T06:43:39.603Z,1024.74
2018-06-25T06:44:39.613Z,1024.7
2018-06-25T06:45:39.526Z,1024.75
2018-06-25T06:46:39.731Z,1024.72
2018-06-25T06:47:39.630Z,1024.73
2018-06-25T06:48:39.635Z,1024.75
2018-06-25T06:49:39.656Z,1024.75
2018-06-25T06:50:39.551Z,1024.79
2018-06-25T06:51:39.555Z,1024.75
2018-06-25T06:52:39.572Z,1024.78
2018-06-25T06:53:54.457Z,1024.79
2018-06-25T06:54:39.586Z,1024.79
2018-06-25T06:55:39.480Z,1024.79
2018-06-25T06:57:39.650Z,1024.79
2018-06-25T06:58:39.476Z,1024.76
2018-06-25T06:59:39.471Z,1024.78
2018-06-25T07:00:39.658Z,1024.75
2018-06-25T07:01:39.474Z,1024.8
2018-06-25T07:02:39.737Z,1024.79
2018-06-25T07:03:39.499Z,1024.81
2018-06-25T07:04:39.607Z,1024.76
2018-06-25T07:05:39.557Z,1024.81
2018-06-25T07:06:39.478Z,1024.8
2018-06-25T07:07:39.473Z,1024.8
2018-06-25T07:08:39.614Z,1024.8
2018-06-25T07:09:39.631Z,1024.83
2018-06-25T07:10:39.524Z,1024.87
2018-06-25T07:11:39.677Z,1024.81
2018-06-25T07:12:39.653Z,1024.79
2018-06-25T07:13:39.510Z,1024.77
2018-06-25T07:14:39.473Z,1024.75
2018-06-25T07:15:39.658Z,1024.8
2018-06-25T07:16:39.487Z,1024.76
2018-06-25T07:17:39.548Z,1024.78
2018-06-25T07:18:39.500Z,1024.82
2018-06-25T07:19:39.501Z,1024.8
2018-06-25T07:20:39.566Z,1024.75
2018-06-25T07:21:39.495Z,1024.72
2018-06-25T07:22:39.632Z,1024.8
2018-06-25T07:23:39.484Z,1024.74
2018-06-25T07:24:39.684Z,1024.77
2018-06-25T07:25:39.512Z,1024.79
2018-06-25T07:26:39.494Z,1024.77
2018-06-25T07:27:39.495Z,1024.79
2018-06-25T07:28:39.487Z,1024.77
2018-06-25T07:29:39.497Z,1024.77
2018-06-25T07:30:39.505Z,1024.77
2018-06-25T07:31:39.501Z,1024.77
2018-06-25T07:32:39.479Z,1024.76
2018-06-25T07:33:39.504Z,1024.74
2018-06-25T07:34:39.479Z,1024.71
2018-06-25T07:35:39.514Z,1024.74
2018-06-25T07:36:39.483Z,1024.74
2018-06-25T07:37:39.490Z,1024.77
2018-06-25T07:38:39.509Z,1024.78
2018-06-25T07:39:39.529Z,1024.77
2018-06-25T07:40:39.563Z,1024.79
2018-06-25T07:41:39.531Z,1024.82
2018-06-25T07:42:39.505Z,1024.82
2018-06-25T07:43:39.496Z,1024.8
2018-06-25T07:44:39.712Z,1024.79
2018-06-25T07:45:39.499Z,1024.8
2018-06-25T07:46:39.499Z,1024.79
2018-06-25T07:47:39.543Z,1024.81
2018-06-25T07:48:39.533Z,1024.76
2018-06-25T07:49:39.510Z,1024.82
2018-06-25T07:50:39.506Z,1024.76
2018-06-25T07:51:39.523Z,1024.74
2018-06-25T07:52:39.492Z,1024.75
2018-06-25T07:53:39.798Z,1024.76
2018-06-25T07:54:39.509Z,1024.75
2018-06-25T07:55:39.514Z,1024.71
2018-06-25T07:56:39.662Z,1024.69
2018-06-25T07:57:39.590Z,1024.68
2018-06-25T07:58:39.531Z,1024.73
2018-06-25T07:59:39.547Z,1024.71
2018-06-25T08:00:39.504Z,1024.73
2018-06-25T08:01:39.599Z,1024.7
2018-06-25T08:02:39.518Z,1024.77
2018-06-25T08:03:39.626Z,1024.72
2018-06-25T08:04:39.526Z,1024.7
2018-06-25T08:05:39.530Z,1024.72
2018-06-25T08:06:39.530Z,1024.74
2018-06-25T08:07:39.536Z,1024.72
2018-06-25T08:08:39.682Z,1024.71
2018-06-25T08:09:39.694Z,1024.69
2018-06-25T08:10:39.789Z,1024.69
2018-06-25T08:11:39.597Z,1024.7
2018-06-25T08:12:39.602Z,1024.72
2018-06-25T08:13:39.706Z,1024.73
2018-06-25T08:14:39.538Z,1024.74
2018-06-25T08:15:39.703Z,1024.72
2018-06-25T08:16:39.851Z,1024.76
2018-06-25T08:17:39.529Z,1024.74
2018-06-25T08:18:39.681Z,1024.79
2018-06-25T08:19:39.544Z,1024.78
2018-06-25T08:20:39.743Z,1024.77
2018-06-25T08:21:39.669Z,1024.76
2018-06-25T08:22:39.530Z,1024.78
2018-06-25T08:23:39.521Z,1024.81
2018-06-25T08:24:39.520Z,1024.82
2018-06-25T08:25:39.528Z,1024.82
2018-06-25T08:26:39.554Z,1024.86
2018-06-25T08:27:39.679Z,1024.83
2018-06-25T08:28:39.529Z,1024.83
2018-06-25T08:29:39.657Z,1024.87
2018-06-25T08:30:39.525Z,1024.88
2018-06-25T08:31:39.732Z,1024.87
2018-06-25T08:32:39.530Z,1024.88
2018-06-25T08:33:39.510Z,1024.88
2018-06-25T08:34:39.535Z,1024.87
2018-06-25T08:35:39.521Z,1024.86
2018-06-25T08:36:39.551Z,1024.89
2018-06-25T08:37:39.601Z,1024.88
2018-06-25T08:38:39.525Z,1024.87
2018-06-25T08:39:39.529Z,1024.9
2018-06-25T08:40:39.526Z,1024.94
2018-06-25T08:41:39.703Z,1024.93
2018-06-25T08:42:39.546Z,1024.92
2018-06-25T08:43:39.734Z,1024.99
2018-06-25T08:44:39.720Z,1025.01
2018-06-25T08:45:39.552Z,1024.98
2018-06-25T08:46:39.557Z,1025.05
2018-06-25T08:47:39.542Z,1024.99
2018-06-25T08:48:39.546Z,1025.05
2018-06-25T08:49:40.792Z,1025.02
2018-06-25T08:50:39.563Z,1025.01
2018-06-25T08:51:39.600Z,1025
2018-06-25T08:52:39.540Z,1024.96
2018-06-25T08:53:39.564Z,1025.01
2018-06-25T08:54:39.577Z,1025.01
2018-06-25T08:55:39.740Z,1024.97
2018-06-25T08:56:39.558Z,1024.96
2018-06-25T08:57:39.539Z,1024.92
2018-06-25T08:58:39.646Z,1024.96
2018-06-25T08:59:39.548Z,1024.97
2018-06-25T09:00:39.553Z,1024.97
2018-06-25T09:01:39.573Z,1024.95
2018-06-25T09:02:39.633Z,1024.96
2018-06-25T09:03:39.557Z,1025
2018-06-25T09:04:39.658Z,1024.95
2018-06-25T09:05:39.614Z,1025.04
2018-06-25T09:06:39.563Z,1025.02
2018-06-25T09:07:39.579Z,1025.05
2018-06-25T09:08:39.590Z,1025.02
2018-06-25T09:09:39.680Z,1025.04
2018-06-25T09:10:39.583Z,1025.01
2018-06-25T09:11:39.630Z,1025.03
2018-06-25T09:12:39.544Z,1024.98
2018-06-25T09:13:39.583Z,1024.98
2018-06-25T09:14:39.727Z,1024.99
2018-06-25T09:15:39.804Z,1024.98
2018-06-25T09:16:39.552Z,1024.96
2018-06-25T09:17:39.726Z,1024.96
2018-06-25T09:18:39.616Z,1024.95
2018-06-25T09:19:39.554Z,1024.94
2018-06-25T09:20:39.559Z,1024.93
2018-06-25T09:21:39.559Z,1024.89
2018-06-25T09:22:39.704Z,1024.94
2018-06-25T09:23:39.577Z,1024.91
2018-06-25T09:24:39.575Z,1024.93
2018-06-25T09:25:39.569Z,1024.93
2018-06-25T09:26:39.565Z,1024.9
2018-06-25T09:27:39.721Z,1024.84
2018-06-25T09:28:39.586Z,1024.87
2018-06-25T09:29:39.719Z,1024.89
2018-06-25T09:30:39.577Z,1024.88
2018-06-25T09:31:39.747Z,1024.89
2018-06-25T09:32:39.568Z,1024.85
2018-06-25T09:33:39.570Z,1024.88
2018-06-25T09:34:39.759Z,1024.89
2018-06-25T09:35:39.572Z,1024.9
2018-06-25T09:36:39.621Z,1024.88
2018-06-25T09:37:39.677Z,1024.87
2018-06-25T09:38:39.577Z,1024.88
2018-06-25T09:39:39.582Z,1024.85
2018-06-25T09:40:39.582Z,1024.9
2018-06-25T09:41:39.965Z,1024.86
2018-06-25T09:42:39.587Z,1024.9
2018-06-25T09:43:39.592Z,1024.87
2018-06-25T09:44:39.577Z,1024.91
2018-06-25T09:45:39.593Z,1024.88
2018-06-25T09:46:39.739Z,1024.91
2018-06-25T09:47:39.572Z,1024.92
2018-06-25T09:48:39.576Z,1024.9
2018-06-25T09:49:39.666Z,1024.94
2018-06-25T09:50:39.605Z,1024.91
2018-06-25T09:51:39.583Z,1024.89
2018-06-25T09:52:39.584Z,1024.9
2018-06-25T09:53:39.608Z,1024.9
2018-06-25T09:54:39.608Z,1024.85
2018-06-25T09:55:39.594Z,1024.89
2018-06-25T09:56:39.595Z,1024.85
2018-06-25T09:57:39.601Z,1024.87
2018-06-25T09:58:39.607Z,1024.91
2018-06-25T09:59:39.623Z,1024.95
2018-06-25T10:00:39.608Z,1024.92
2018-06-25T10:01:39.621Z,1024.89
2018-06-25T10:02:39.607Z,1024.94
2018-06-25T10:03:39.583Z,1024.94
2018-06-25T10:04:39.887Z,1024.92
2018-06-25T10:05:39.751Z,1024.91
2018-06-25T10:06:39.680Z,1024.9
2018-06-25T10:07:39.662Z,1024.92
2018-06-25T10:08:39.922Z,1024.96
2018-06-25T10:09:39.814Z,1024.97
2018-06-25T10:10:40.027Z,1024.97
2018-06-25T10:11:39.678Z,1024.9
2018-06-25T10:12:39.720Z,1024.92
2018-06-25T10:13:39.736Z,1024.96
2018-06-25T10:14:39.621Z,1024.89
2018-06-25T10:15:39.602Z,1024.89
2018-06-25T10:16:39.973Z,1024.86
2018-06-25T10:17:39.610Z,1024.88
2018-06-25T10:18:39.710Z,1024.88
2018-06-25T10:19:39.867Z,1024.89
2018-06-25T10:20:39.680Z,1024.86
2018-06-25T10:21:39.701Z,1024.9
2018-06-25T10:22:39.656Z,1024.91
2018-06-25T10:23:39.603Z,1024.89
2018-06-25T10:24:39.614Z,1024.93
2018-06-25T10:25:39.765Z,1024.88
2018-06-25T10:26:39.709Z,1024.89
2018-06-25T10:27:39.637Z,1024.82
2018-06-25T10:28:39.621Z,1024.86
2018-06-25T10:29:39.653Z,1024.86
2018-06-25T10:30:39.633Z,1024.84
2018-06-25T10:31:39.749Z,1024.84
2018-06-25T10:32:39.673Z,1024.85
2018-06-25T10:33:39.618Z,1024.85
2018-06-25T10:34:39.675Z,1024.85
2018-06-25T10:35:39.623Z,1024.88
2018-06-25T10:36:39.615Z,1024.83
2018-06-25T10:37:39.744Z,1024.85
2018-06-25T10:38:39.804Z,1024.79
2018-06-25T10:39:39.749Z,1024.81
2018-06-25T10:40:39.705Z,1024.84
2018-06-25T10:41:39.658Z,1024.82
2018-06-25T10:42:40.125Z,1024.83
2018-06-25T10:43:39.619Z,1024.85
2018-06-25T10:44:40.048Z,1024.84
2018-06-25T10:45:39.627Z,1024.87
2018-06-25T10:46:39.701Z,1024.84
2018-06-25T10:47:39.658Z,1024.85
2018-06-25T10:48:39.664Z,1024.91
2018-06-25T10:49:39.690Z,1024.86
2018-06-25T10:50:39.737Z,1024.84
2018-06-25T10:51:39.645Z,1024.85
2018-06-25T10:52:39.630Z,1024.87
2018-06-25T10:53:39.651Z,1024.84
2018-06-25T10:54:39.622Z,1024.84
2018-06-25T10:55:39.622Z,1024.89
2018-06-25T10:56:39.620Z,1024.81
2018-06-25T10:57:39.681Z,1024.91
2018-06-25T10:58:39.733Z,1024.92
2018-06-25T10:59:40.052Z,1024.91
2018-06-25T11:00:39.638Z,1024.92
2018-06-25T11:01:39.634Z,1024.92
2018-06-25T11:02:39.660Z,1024.91
2018-06-25T11:03:39.633Z,1024.91
2018-06-25T11:04:39.655Z,1024.92
2018-06-25T11:05:39.827Z,1024.88
2018-06-25T11:06:39.716Z,1024.85
2018-06-25T11:07:40.105Z,1024.87
2018-06-25T11:08:39.669Z,1024.9
2018-06-25T11:09:39.646Z,1024.85
2018-06-25T11:10:39.617Z,1024.86
2018-06-25T11:11:39.633Z,1024.86
2018-06-25T11:12:39.745Z,1024.86
2018-06-25T11:13:39.662Z,1024.85
2018-06-25T11:14:39.667Z,1024.86
2018-06-25T11:15:39.696Z,1024.85
2018-06-25T11:16:39.649Z,1024.87
2018-06-25T11:17:39.671Z,1024.86
2018-06-25T11:18:39.680Z,1024.83
2018-06-25T11:19:39.675Z,1024.79
2018-06-25T11:20:39.665Z,1024.8
2018-06-25T11:21:39.638Z,1024.8
2018-06-25T11:22:39.665Z,1024.78
2018-06-25T11:23:39.649Z,1024.77
2018-06-25T11:24:39.636Z,1024.76
2018-06-25T11:25:39.663Z,1024.76
2018-06-25T11:26:39.834Z,1024.76
2018-06-25T11:27:39.998Z,1024.68
2018-06-25T11:28:39.735Z,1024.67
2018-06-25T11:29:39.691Z,1024.67
2018-06-25T11:30:39.652Z,1024.6
2018-06-25T11:31:39.667Z,1024.58
2018-06-25T11:32:39.667Z,1024.55
2018-06-25T11:33:39.656Z,1024.58
2018-06-25T11:34:40.233Z,1024.61
2018-06-25T11:35:39.664Z,1024.55
2018-06-25T11:36:39.746Z,1024.54
2018-06-25T11:37:39.747Z,1024.55
2018-06-25T11:38:39.652Z,1024.53
2018-06-25T11:39:39.661Z,1024.52
2018-06-25T11:40:39.712Z,1024.49
2018-06-25T11:41:39.675Z,1024.49
2018-06-25T11:42:39.884Z,1024.52
2018-06-25T11:43:39.719Z,1024.51
2018-06-25T11:44:39.860Z,1024.5
2018-06-25T11:45:39.651Z,1024.51
2018-06-25T11:46:39.844Z,1024.52
2018-06-25T11:47:39.739Z,1024.51
2018-06-25T11:48:39.669Z,1024.53
2018-06-25T11:49:39.684Z,1024.5
2018-06-25T11:50:39.683Z,1024.53
2018-06-25T11:51:39.937Z,1024.51
2018-06-25T11:52:39.694Z,1024.51
2018-06-25T11:53:39.690Z,1024.48
2018-06-25T11:54:39.704Z,1024.47
2018-06-25T11:55:39.922Z,1024.42
2018-06-25T11:56:39.677Z,1024.45
2018-06-25T11:57:39.653Z,1024.47
2018-06-25T11:58:39.672Z,1024.46
2018-06-25T11:59:39.656Z,1024.48
2018-06-25T12:00:39.731Z,1024.49
2018-06-25T12:01:39.711Z,1024.49
2018-06-25T12:02:40.033Z,1024.48
2018-06-25T12:03:39.695Z,1024.5
2018-06-25T12:04:39.665Z,1024.5
2018-06-25T12:05:39.689Z,1024.55
2018-06-25T12:06:39.697Z,1024.48
2018-06-25T12:07:39.694Z,1024.49
2018-06-25T12:08:39.793Z,1024.53
2018-06-25T12:09:39.677Z,1024.53